sensor_id;sensor_type;location;lat;lon;timestamp;temperature;humidity
25923;DHT22;13725;51.170;4.442;2022-11-30T00:00:35;8.50;99.90
25923;DHT22;13725;51.170;4.442;2022-11-30T00:03:01;8.50;99.90
25923;DHT22;13725;51.170;4.442;2022-11-30T00:05:27;8.50;99.90
25923;DHT22;13725;51.170;4.442;2022-11-30T00:07:53;8.50;99.90
25923;DHT22;13725;51.170;4.442;2022-11-30T00:10:20;8.50;99.90
25923;DHT22;13725;51.170;4.442;2022-11-30T00:12:46;8.60;99.90
25923;DHT22;13725;51.170;4.442;2022-11-30T00:15:13;8.60;99.90
25923;DHT22;13725;51.170;4.442;2022-11-30T00:17:39;8.50;99.90
25923;DHT22;13725;51.170;4.442;2022-11-30T00:20:07;8.60;99.90
25923;DHT22;13725;51.170;4.442;2022-11-30T00:22:34;8.60;99.90
25923;DHT22;13725;51.170;4.442;2022-11-30T00:25:00;8.50;99.90
25923;DHT22;13725;51.170;4.442;2022-11-30T00:27:28;8.60;99.90
25923;DHT22;13725;51.170;4.442;2022-11-30T00:29:54;8.60;99.90
25923;DHT22;13725;51.170;4.442;2022-11-30T00:32:21;8.60;99.90
25923;DHT22;13725;51.170;4.442;2022-11-30T00:34:47;8.60;99.90
25923;DHT22;13725;51.170;4.442;2022-11-30T00:37:14;8.50;99.90
25923;DHT22;13725;51.170;4.442;2022-11-30T00:39:42;8.50;99.90
25923;DHT22;13725;51.170;4.442;2022-11-30T00:42:08;8.50;99.90
25923;DHT22;13725;51.170;4.442;2022-11-30T00:44:34;8.50;99.90
25923;DHT22;13725;51.170;4.442;2022-11-30T00:47:00;8.50;99.90
25923;DHT22;13725;51.170;4.442;2022-11-30T00:49:25;8.40;99.90
25923;DHT22;13725;51.170;4.442;2022-11-30T00:51:51;8.50;99.90
25923;DHT22;13725;51.170;4.442;2022-11-30T00:54:17;8.50;99.90
25923;DHT22;13725;51.170;4.442;2022-11-30T00:56:44;8.50;99.90
25923;DHT22;13725;51.170;4.442;2022-11-30T00:59:11;8.40;99.90
25923;DHT22;13725;51.170;4.442;2022-11-30T01:01:37;8.50;99.90
25923;DHT22;13725;51.170;4.442;2022-11-30T01:04:03;8.50;99.90
25923;DHT22;13725;51.170;4.442;2022-11-30T01:06:32;8.50;99.90
25923;DHT22;13725;51.170;4.442;2022-11-30T01:08:58;8.70;99.90
25923;DHT22;13725;51.170;4.442;2022-11-30T01:11:27;8.60;99.90
25923;DHT22;13725;51.170;4.442;2022-11-30T01:13:54;8.60;99.90
25923;DHT22;13725;51.170;4.442;2022-11-30T01:16:26;8.60;99.90
25923;DHT22;13725;51.170;4.442;2022-11-30T01:18:52;8.60;99.90
25923;DHT22;13725;51.170;4.442;2022-11-30T01:21:21;8.60;99.90
25923;DHT22;13725;51.170;4.442;2022-11-30T01:23:48;8.60;99.90
25923;DHT22;13725;51.170;4.442;2022-11-30T01:26:14;8.60;99.90
25923;DHT22;13725;51.170;4.442;2022-11-30T01:28:40;8.60;99.90
25923;DHT22;13725;51.170;4.442;2022-11-30T01:31:11;8.50;99.90
25923;DHT22;13725;51.170;4.442;2022-11-30T01:33:39;8.60;99.90
25923;DHT22;13725;51.170;4.442;2022-11-30T01:36:17;8.40;99.90
25923;DHT22;13725;51.170;4.442;2022-11-30T01:38:48;8.50;99.90
25923;DHT22;13725;51.170;4.442;2022-11-30T01:41:30;8.50;99.90
25923;DHT22;13725;51.170;4.442;2022-11-30T01:47:07;8.50;99.90
25923;DHT22;13725;51.170;4.442;2022-11-30T01:49:40;8.40;99.90
25923;DHT22;13725;51.170;4.442;2022-11-30T01:52:42;8.30;99.90
25923;DHT22;13725;51.170;4.442;2022-11-30T02:00:30;8.30;99.90
25923;DHT22;13725;51.170;4.442;2022-11-30T02:03:06;8.30;99.90
25923;DHT22;13725;51.170;4.442;2022-11-30T02:05:38;8.30;99.90
25923;DHT22;13725;51.170;4.442;2022-11-30T02:08:06;8.30;99.90
25923;DHT22;13725;51.170;4.442;2022-11-30T02:10:35;8.40;99.90
25923;DHT22;13725;51.170;4.442;2022-11-30T02:15:49;8.40;99.90
25923;DHT22;13725;51.170;4.442;2022-11-30T02:18:30;8.40;99.90
25923;DHT22;13725;51.170;4.442;2022-11-30T02:21:12;8.30;99.90
25923;DHT22;13725;51.170;4.442;2022-11-30T02:23:49;8.30;99.90
25923;DHT22;13725;51.170;4.442;2022-11-30T02:29:27;8.30;99.90
25923;DHT22;13725;51.170;4.442;2022-11-30T02:34:45;8.20;99.90
25923;DHT22;13725;51.170;4.442;2022-11-30T02:37:12;8.20;99.90
25923;DHT22;13725;51.170;4.442;2022-11-30T02:39:39;8.10;99.90
25923;DHT22;13725;51.170;4.442;2022-11-30T02:42:09;8.10;99.90
25923;DHT22;13725;51.170;4.442;2022-11-30T02:44:36;8.10;99.90
25923;DHT22;13725;51.170;4.442;2022-11-30T02:52:11;8.00;99.90
25923;DHT22;13725;51.170;4.442;2022-11-30T02:54:39;8.00;99.90
25923;DHT22;13725;51.170;4.442;2022-11-30T02:57:06;8.00;99.90
25923;DHT22;13725;51.170;4.442;2022-11-30T02:59:32;8.00;99.90
25923;DHT22;13725;51.170;4.442;2022-11-30T03:01:58;7.90;99.90
25923;DHT22;13725;51.170;4.442;2022-11-30T03:04:23;7.90;99.90
25923;DHT22;13725;51.170;4.442;2022-11-30T03:06:49;7.90;99.90
25923;DHT22;13725;51.170;4.442;2022-11-30T03:09:15;7.90;99.90
25923;DHT22;13725;51.170;4.442;2022-11-30T03:11:41;8.00;99.90
25923;DHT22;13725;51.170;4.442;2022-11-30T03:14:06;7.90;99.90
25923;DHT22;13725;51.170;4.442;2022-11-30T03:16:32;8.00;99.90
25923;DHT22;13725;51.170;4.442;2022-11-30T03:18:58;8.00;99.90
25923;DHT22;13725;51.170;4.442;2022-11-30T03:21:24;8.00;99.90
25923;DHT22;13725;51.170;4.442;2022-11-30T03:23:50;7.90;99.90
25923;DHT22;13725;51.170;4.442;2022-11-30T03:26:16;7.90;99.90
25923;DHT22;13725;51.170;4.442;2022-11-30T03:28:41;7.90;99.90
25923;DHT22;13725;51.170;4.442;2022-11-30T03:31:11;8.00;99.90
25923;DHT22;13725;51.170;4.442;2022-11-30T03:33:41;7.90;99.90
25923;DHT22;13725;51.170;4.442;2022-11-30T03:36:08;7.80;99.90
25923;DHT22;13725;51.170;4.442;2022-11-30T03:38:35;7.80;99.90
25923;DHT22;13725;51.170;4.442;2022-11-30T03:41:06;7.80;99.90
25923;DHT22;13725;51.170;4.442;2022-11-30T03:43:32;7.80;99.90
25923;DHT22;13725;51.170;4.442;2022-11-30T03:45:58;7.70;99.90
25923;DHT22;13725;51.170;4.442;2022-11-30T03:48:24;7.70;99.90
25923;DHT22;13725;51.170;4.442;2022-11-30T03:50:50;7.70;99.90
25923;DHT22;13725;51.170;4.442;2022-11-30T03:53:20;7.80;99.90
25923;DHT22;13725;51.170;4.442;2022-11-30T03:55:54;7.80;99.90
25923;DHT22;13725;51.170;4.442;2022-11-30T03:58:20;7.80;99.90
25923;DHT22;13725;51.170;4.442;2022-11-30T04:00:46;7.70;99.90
25923;DHT22;13725;51.170;4.442;2022-11-30T04:03:12;7.80;99.90
25923;DHT22;13725;51.170;4.442;2022-11-30T04:05:38;7.80;99.90
25923;DHT22;13725;51.170;4.442;2022-11-30T04:08:03;7.90;99.90
25923;DHT22;13725;51.170;4.442;2022-11-30T04:10:29;7.90;99.90
25923;DHT22;13725;51.170;4.442;2022-11-30T04:12:55;7.90;99.90
25923;DHT22;13725;51.170;4.442;2022-11-30T04:15:20;7.90;99.90
25923;DHT22;13725;51.170;4.442;2022-11-30T04:17:46;7.80;99.90
25923;DHT22;13725;51.170;4.442;2022-11-30T04:20:12;7.90;99.90
25923;DHT22;13725;51.170;4.442;2022-11-30T04:22:38;7.90;99.90
25923;DHT22;13725;51.170;4.442;2022-11-30T04:25:04;7.80;99.90
25923;DHT22;13725;51.170;4.442;2022-11-30T04:27:29;7.90;99.90
25923;DHT22;13725;51.170;4.442;2022-11-30T04:29:55;7.80;99.90
25923;DHT22;13725;51.170;4.442;2022-11-30T04:32:21;7.80;99.90
25923;DHT22;13725;51.170;4.442;2022-11-30T04:34:46;7.80;99.90
25923;DHT22;13725;51.170;4.442;2022-11-30T04:37:12;7.80;99.90
25923;DHT22;13725;51.170;4.442;2022-11-30T04:39:38;7.80;99.90
25923;DHT22;13725;51.170;4.442;2022-11-30T04:42:03;7.80;99.90
25923;DHT22;13725;51.170;4.442;2022-11-30T04:44:29;7.80;99.90
25923;DHT22;13725;51.170;4.442;2022-11-30T04:46:55;7.80;99.90
25923;DHT22;13725;51.170;4.442;2022-11-30T04:49:21;7.80;99.90
25923;DHT22;13725;51.170;4.442;2022-11-30T04:51:46;7.80;99.90
25923;DHT22;13725;51.170;4.442;2022-11-30T04:54:12;7.80;99.90
25923;DHT22;13725;51.170;4.442;2022-11-30T04:56:38;7.80;99.90
25923;DHT22;13725;51.170;4.442;2022-11-30T04:59:03;7.80;99.90
25923;DHT22;13725;51.170;4.442;2022-11-30T05:01:30;7.80;99.90
25923;DHT22;13725;51.170;4.442;2022-11-30T05:03:56;7.80;99.90
25923;DHT22;13725;51.170;4.442;2022-11-30T05:06:25;7.80;99.90
25923;DHT22;13725;51.170;4.442;2022-11-30T05:08:51;7.80;99.90
25923;DHT22;13725;51.170;4.442;2022-11-30T05:11:16;7.90;99.90
25923;DHT22;13725;51.170;4.442;2022-11-30T05:13:42;7.90;99.90
25923;DHT22;13725;51.170;4.442;2022-11-30T05:16:08;7.90;99.90
25923;DHT22;13725;51.170;4.442;2022-11-30T05:18:35;7.90;99.90
25923;DHT22;13725;51.170;4.442;2022-11-30T05:21:01;7.90;99.90
25923;DHT22;13725;51.170;4.442;2022-11-30T05:23:27;7.80;99.90
25923;DHT22;13725;51.170;4.442;2022-11-30T05:25:53;7.80;99.90
25923;DHT22;13725;51.170;4.442;2022-11-30T05:28:19;7.80;99.90
25923;DHT22;13725;51.170;4.442;2022-11-30T05:30:45;7.90;99.90
25923;DHT22;13725;51.170;4.442;2022-11-30T05:33:11;7.90;99.90
25923;DHT22;13725;51.170;4.442;2022-11-30T05:35:37;7.90;99.90
25923;DHT22;13725;51.170;4.442;2022-11-30T05:38:03;7.90;99.90
25923;DHT22;13725;51.170;4.442;2022-11-30T05:40:29;7.90;99.90
25923;DHT22;13725;51.170;4.442;2022-11-30T05:42:58;7.90;99.90
25923;DHT22;13725;51.170;4.442;2022-11-30T05:45:25;7.90;99.90
25923;DHT22;13725;51.170;4.442;2022-11-30T05:47:51;7.90;99.90
25923;DHT22;13725;51.170;4.442;2022-11-30T05:50:16;7.80;99.90
25923;DHT22;13725;51.170;4.442;2022-11-30T05:52:42;7.70;99.90
25923;DHT22;13725;51.170;4.442;2022-11-30T05:55:08;7.70;99.90
25923;DHT22;13725;51.170;4.442;2022-11-30T05:57:38;7.80;99.90
25923;DHT22;13725;51.170;4.442;2022-11-30T06:00:06;7.70;99.90
25923;DHT22;13725;51.170;4.442;2022-11-30T06:02:37;7.70;99.90
25923;DHT22;13725;51.170;4.442;2022-11-30T06:05:03;7.80;99.90
25923;DHT22;13725;51.170;4.442;2022-11-30T06:07:28;7.80;99.90
25923;DHT22;13725;51.170;4.442;2022-11-30T06:09:54;7.80;99.90
25923;DHT22;13725;51.170;4.442;2022-11-30T06:12:20;7.90;99.90
25923;DHT22;13725;51.170;4.442;2022-11-30T06:14:46;7.90;99.90
25923;DHT22;13725;51.170;4.442;2022-11-30T06:17:11;8.00;99.90
25923;DHT22;13725;51.170;4.442;2022-11-30T06:19:37;8.00;99.90
25923;DHT22;13725;51.170;4.442;2022-11-30T06:22:03;8.00;99.90
25923;DHT22;13725;51.170;4.442;2022-11-30T06:24:29;7.90;99.90
25923;DHT22;13725;51.170;4.442;2022-11-30T06:26:55;7.90;99.90
25923;DHT22;13725;51.170;4.442;2022-11-30T06:29:21;7.90;99.90
25923;DHT22;13725;51.170;4.442;2022-11-30T06:31:47;8.00;99.90
25923;DHT22;13725;51.170;4.442;2022-11-30T06:34:12;7.90;99.90
25923;DHT22;13725;51.170;4.442;2022-11-30T06:36:38;7.90;99.90
25923;DHT22;13725;51.170;4.442;2022-11-30T06:39:04;7.90;99.90
25923;DHT22;13725;51.170;4.442;2022-11-30T06:41:29;7.90;99.90
25923;DHT22;13725;51.170;4.442;2022-11-30T06:43:55;7.90;99.90
25923;DHT22;13725;51.170;4.442;2022-11-30T06:46:21;7.90;99.90
25923;DHT22;13725;51.170;4.442;2022-11-30T06:48:48;7.90;99.90
25923;DHT22;13725;51.170;4.442;2022-11-30T06:51:17;8.00;99.90
25923;DHT22;13725;51.170;4.442;2022-11-30T06:53:43;8.00;99.90
25923;DHT22;13725;51.170;4.442;2022-11-30T06:56:10;8.00;99.90
25923;DHT22;13725;51.170;4.442;2022-11-30T06:58:39;8.00;99.90
25923;DHT22;13725;51.170;4.442;2022-11-30T07:01:07;8.00;99.90
25923;DHT22;13725;51.170;4.442;2022-11-30T07:03:34;7.90;99.90
25923;DHT22;13725;51.170;4.442;2022-11-30T07:06:04;7.80;99.90
25923;DHT22;13725;51.170;4.442;2022-11-30T07:08:30;7.80;99.90
25923;DHT22;13725;51.170;4.442;2022-11-30T07:10:58;7.80;99.90
25923;DHT22;13725;51.170;4.442;2022-11-30T07:13:24;7.90;99.90
25923;DHT22;13725;51.170;4.442;2022-11-30T07:15:50;7.90;99.90
25923;DHT22;13725;51.170;4.442;2022-11-30T07:18:15;7.80;99.90
25923;DHT22;13725;51.170;4.442;2022-11-30T07:20:41;7.80;99.90
25923;DHT22;13725;51.170;4.442;2022-11-30T07:23:07;7.80;99.90
25923;DHT22;13725;51.170;4.442;2022-11-30T07:25:52;7.80;99.90
25923;DHT22;13725;51.170;4.442;2022-11-30T07:28:39;7.80;99.90
25923;DHT22;13725;51.170;4.442;2022-11-30T07:31:22;7.80;99.90
25923;DHT22;13725;51.170;4.442;2022-11-30T07:33:49;7.90;99.90
25923;DHT22;13725;51.170;4.442;2022-11-30T07:36:16;7.90;99.90
25923;DHT22;13725;51.170;4.442;2022-11-30T07:38:42;8.00;99.90
25923;DHT22;13725;51.170;4.442;2022-11-30T07:41:08;8.00;99.90
25923;DHT22;13725;51.170;4.442;2022-11-30T07:43:34;8.00;99.90
25923;DHT22;13725;51.170;4.442;2022-11-30T07:46:00;8.00;99.90
25923;DHT22;13725;51.170;4.442;2022-11-30T07:48:26;8.00;99.90
25923;DHT22;13725;51.170;4.442;2022-11-30T07:50:52;8.00;99.90
25923;DHT22;13725;51.170;4.442;2022-11-30T07:53:17;8.00;99.90
25923;DHT22;13725;51.170;4.442;2022-11-30T07:55:44;8.10;99.90
25923;DHT22;13725;51.170;4.442;2022-11-30T07:58:10;8.10;99.90
25923;DHT22;13725;51.170;4.442;2022-11-30T08:00:37;8.10;99.90
25923;DHT22;13725;51.170;4.442;2022-11-30T08:03:03;8.20;99.90
25923;DHT22;13725;51.170;4.442;2022-11-30T08:05:29;8.10;99.90
25923;DHT22;13725;51.170;4.442;2022-11-30T08:07:55;8.20;99.90
25923;DHT22;13725;51.170;4.442;2022-11-30T08:10:22;8.10;99.90
25923;DHT22;13725;51.170;4.442;2022-11-30T08:12:49;8.10;99.90
25923;DHT22;13725;51.170;4.442;2022-11-30T08:15:15;8.20;99.90
25923;DHT22;13725;51.170;4.442;2022-11-30T08:17:42;8.30;99.90
25923;DHT22;13725;51.170;4.442;2022-11-30T08:20:08;8.30;99.90
25923;DHT22;13725;51.170;4.442;2022-11-30T08:22:35;8.40;99.90
25923;DHT22;13725;51.170;4.442;2022-11-30T08:25:01;8.50;99.90
25923;DHT22;13725;51.170;4.442;2022-11-30T08:27:27;8.50;99.90
25923;DHT22;13725;51.170;4.442;2022-11-30T08:29:52;8.60;99.90
25923;DHT22;13725;51.170;4.442;2022-11-30T08:32:18;8.60;99.90
25923;DHT22;13725;51.170;4.442;2022-11-30T08:34:44;8.60;99.90
25923;DHT22;13725;51.170;4.442;2022-11-30T08:37:10;8.70;99.90
25923;DHT22;13725;51.170;4.442;2022-11-30T08:39:35;8.70;99.90
25923;DHT22;13725;51.170;4.442;2022-11-30T08:42:01;8.60;99.90
25923;DHT22;13725;51.170;4.442;2022-11-30T08:44:28;8.60;99.90
25923;DHT22;13725;51.170;4.442;2022-11-30T08:46:54;8.70;99.90
25923;DHT22;13725;51.170;4.442;2022-11-30T08:49:20;8.70;99.90
25923;DHT22;13725;51.170;4.442;2022-11-30T08:51:48;8.80;99.90
25923;DHT22;13725;51.170;4.442;2022-11-30T08:54:14;8.90;99.90
25923;DHT22;13725;51.170;4.442;2022-11-30T08:56:40;8.90;99.90
25923;DHT22;13725;51.170;4.442;2022-11-30T08:59:05;8.90;99.90
25923;DHT22;13725;51.170;4.442;2022-11-30T09:01:32;9.00;99.90
25923;DHT22;13725;51.170;4.442;2022-11-30T09:03:58;9.00;99.90
25923;DHT22;13725;51.170;4.442;2022-11-30T09:06:26;9.00;99.90
25923;DHT22;13725;51.170;4.442;2022-11-30T09:08:53;9.00;99.90
25923;DHT22;13725;51.170;4.442;2022-11-30T09:11:23;9.10;99.90
25923;DHT22;13725;51.170;4.442;2022-11-30T09:13:49;9.10;99.90
25923;DHT22;13725;51.170;4.442;2022-11-30T09:16:17;9.10;99.90
25923;DHT22;13725;51.170;4.442;2022-11-30T09:18:44;9.20;99.90
25923;DHT22;13725;51.170;4.442;2022-11-30T09:21:13;9.20;99.90
25923;DHT22;13725;51.170;4.442;2022-11-30T09:23:39;9.10;99.90
25923;DHT22;13725;51.170;4.442;2022-11-30T09:26:10;9.10;99.90
25923;DHT22;13725;51.170;4.442;2022-11-30T09:28:37;9.10;99.90
25923;DHT22;13725;51.170;4.442;2022-11-30T09:31:06;9.10;99.90
25923;DHT22;13725;51.170;4.442;2022-11-30T09:33:32;9.10;99.90
25923;DHT22;13725;51.170;4.442;2022-11-30T09:36:04;9.30;99.90
25923;DHT22;13725;51.170;4.442;2022-11-30T09:38:30;9.40;99.90
25923;DHT22;13725;51.170;4.442;2022-11-30T09:40:58;9.50;99.90
25923;DHT22;13725;51.170;4.442;2022-11-30T09:45:55;9.70;99.90
25923;DHT22;13725;51.170;4.442;2022-11-30T09:51:22;10.00;99.90
25923;DHT22;13725;51.170;4.442;2022-11-30T09:54:12;9.90;99.90
25923;DHT22;13725;51.170;4.442;2022-11-30T09:56:41;9.90;99.90
25923;DHT22;13725;51.170;4.442;2022-11-30T09:59:19;9.90;99.90
25923;DHT22;13725;51.170;4.442;2022-11-30T10:01:46;9.90;99.90
25923;DHT22;13725;51.170;4.442;2022-11-30T10:04:27;9.90;99.90
25923;DHT22;13725;51.170;4.442;2022-11-30T10:07:01;9.90;99.90
25923;DHT22;13725;51.170;4.442;2022-11-30T10:12:27;10.10;99.90
25923;DHT22;13725;51.170;4.442;2022-11-30T10:15:14;10.20;99.90
25923;DHT22;13725;51.170;4.442;2022-11-30T10:25:55;10.80;99.90
25923;DHT22;13725;51.170;4.442;2022-11-30T10:28:49;10.70;99.90
25923;DHT22;13725;51.170;4.442;2022-11-30T10:31:17;10.70;99.90
25923;DHT22;13725;51.170;4.442;2022-11-30T10:33:48;10.90;99.90
25923;DHT22;13725;51.170;4.442;2022-11-30T10:38:52;11.00;99.90
25923;DHT22;13725;51.170;4.442;2022-11-30T10:41:42;11.00;99.90
25923;DHT22;13725;51.170;4.442;2022-11-30T10:44:44;11.10;99.90
25923;DHT22;13725;51.170;4.442;2022-11-30T10:47:20;11.00;99.90
25923;DHT22;13725;51.170;4.442;2022-11-30T10:49:51;11.10;99.90
25923;DHT22;13725;51.170;4.442;2022-11-30T10:52:26;11.10;99.90
25923;DHT22;13725;51.170;4.442;2022-11-30T10:54:54;11.10;99.90
25923;DHT22;13725;51.170;4.442;2022-11-30T10:57:22;11.20;99.90
25923;DHT22;13725;51.170;4.442;2022-11-30T10:59:52;11.30;99.90
25923;DHT22;13725;51.170;4.442;2022-11-30T11:02:47;11.30;99.90
25923;DHT22;13725;51.170;4.442;2022-11-30T11:05:18;11.30;99.90
25923;DHT22;13725;51.170;4.442;2022-11-30T11:10:47;11.50;99.90
25923;DHT22;13725;51.170;4.442;2022-11-30T11:16:04;11.50;99.90
25923;DHT22;13725;51.170;4.442;2022-11-30T11:18:34;11.50;99.90
25923;DHT22;13725;51.170;4.442;2022-11-30T11:21:15;11.50;99.90
25923;DHT22;13725;51.170;4.442;2022-11-30T11:23:43;11.70;99.90
25923;DHT22;13725;51.170;4.442;2022-11-30T11:28:47;12.00;99.90
25923;DHT22;13725;51.170;4.442;2022-11-30T11:31:17;12.00;99.90
25923;DHT22;13725;51.170;4.442;2022-11-30T11:33:52;12.00;99.90
25923;DHT22;13725;51.170;4.442;2022-11-30T11:36:27;12.00;99.90
25923;DHT22;13725;51.170;4.442;2022-11-30T11:38:53;12.00;99.90
25923;DHT22;13725;51.170;4.442;2022-11-30T11:41:32;12.00;99.90
25923;DHT22;13725;51.170;4.442;2022-11-30T11:46:51;12.10;99.90
25923;DHT22;13725;51.170;4.442;2022-11-30T11:49:25;12.10;99.90
25923;DHT22;13725;51.170;4.442;2022-11-30T11:52:10;12.00;99.90
25923;DHT22;13725;51.170;4.442;2022-11-30T11:54:58;11.90;99.90
25923;DHT22;13725;51.170;4.442;2022-11-30T11:57:39;11.90;99.90
25923;DHT22;13725;51.170;4.442;2022-11-30T12:00:24;12.00;99.90
25923;DHT22;13725;51.170;4.442;2022-11-30T12:03:13;12.20;99.90
25923;DHT22;13725;51.170;4.442;2022-11-30T12:05:49;12.30;99.90
25923;DHT22;13725;51.170;4.442;2022-11-30T12:08:27;12.50;99.90
25923;DHT22;13725;51.170;4.442;2022-11-30T12:11:02;12.60;99.90
25923;DHT22;13725;51.170;4.442;2022-11-30T12:13:36;12.50;99.90
25923;DHT22;13725;51.170;4.442;2022-11-30T12:22:05;12.60;99.90
25923;DHT22;13725;51.170;4.442;2022-11-30T12:27:19;12.80;99.90
25923;DHT22;13725;51.170;4.442;2022-11-30T12:29:59;13.00;99.90
25923;DHT22;13725;51.170;4.442;2022-11-30T12:41:00;13.30;99.90
25923;DHT22;13725;51.170;4.442;2022-11-30T12:43:47;13.10;99.90
25923;DHT22;13725;51.170;4.442;2022-11-30T12:49:47;12.50;99.90
25923;DHT22;13725;51.170;4.442;2022-11-30T12:52:26;12.30;99.90
25923;DHT22;13725;51.170;4.442;2022-11-30T12:58:01;12.90;99.90
25923;DHT22;13725;51.170;4.442;2022-11-30T13:00:50;13.30;99.90
25923;DHT22;13725;51.170;4.442;2022-11-30T13:06:16;14.10;99.90
25923;DHT22;13725;51.170;4.442;2022-11-30T13:11:37;14.10;99.90
25923;DHT22;13725;51.170;4.442;2022-11-30T13:14:08;13.90;99.90
25923;DHT22;13725;51.170;4.442;2022-11-30T13:16:36;13.70;99.90
25923;DHT22;13725;51.170;4.442;2022-11-30T13:22:03;13.10;99.90
25923;DHT22;13725;51.170;4.442;2022-11-30T13:24:36;12.70;99.90
25923;DHT22;13725;51.170;4.442;2022-11-30T13:27:25;12.30;99.90
25923;DHT22;13725;51.170;4.442;2022-11-30T13:32:42;12.10;99.90
25923;DHT22;13725;51.170;4.442;2022-11-30T13:38:12;12.70;99.90
25923;DHT22;13725;51.170;4.442;2022-11-30T13:40:39;12.90;99.90
25923;DHT22;13725;51.170;4.442;2022-11-30T13:43:15;12.90;99.90
25923;DHT22;13725;51.170;4.442;2022-11-30T13:45:43;12.90;99.90
25923;DHT22;13725;51.170;4.442;2022-11-30T13:48:41;12.90;99.90
25923;DHT22;13725;51.170;4.442;2022-11-30T13:51:08;12.80;99.90
25923;DHT22;13725;51.170;4.442;2022-11-30T13:53:36;12.60;99.90
25923;DHT22;13725;51.170;4.442;2022-11-30T13:56:30;12.30;99.90
25923;DHT22;13725;51.170;4.442;2022-11-30T14:01:50;12.00;99.90
25923;DHT22;13725;51.170;4.442;2022-11-30T14:04:21;11.90;99.90
25923;DHT22;13725;51.170;4.442;2022-11-30T14:06:51;11.90;99.90
25923;DHT22;13725;51.170;4.442;2022-11-30T14:14:56;11.80;99.90
25923;DHT22;13725;51.170;4.442;2022-11-30T14:17:48;11.80;99.90
25923;DHT22;13725;51.170;4.442;2022-11-30T14:20:16;11.70;99.90
25923;DHT22;13725;51.170;4.442;2022-11-30T14:22:47;11.60;99.90
25923;DHT22;13725;51.170;4.442;2022-11-30T14:25:15;11.50;99.90
25923;DHT22;13725;51.170;4.442;2022-11-30T14:27:43;11.50;99.90
25923;DHT22;13725;51.170;4.442;2022-11-30T14:30:20;11.40;99.90
25923;DHT22;13725;51.170;4.442;2022-11-30T14:33:00;11.40;99.90
25923;DHT22;13725;51.170;4.442;2022-11-30T14:35:29;11.40;99.90
25923;DHT22;13725;51.170;4.442;2022-11-30T14:38:00;11.30;99.90
25923;DHT22;13725;51.170;4.442;2022-11-30T14:40:28;11.20;99.90
25923;DHT22;13725;51.170;4.442;2022-11-30T14:42:57;11.20;99.90
25923;DHT22;13725;51.170;4.442;2022-11-30T14:45:29;11.10;99.90
25923;DHT22;13725;51.170;4.442;2022-11-30T14:48:10;11.10;99.90
25923;DHT22;13725;51.170;4.442;2022-11-30T14:50:49;10.90;99.90
25923;DHT22;13725;51.170;4.442;2022-11-30T14:56:21;10.70;99.90
25923;DHT22;13725;51.170;4.442;2022-11-30T14:59:26;10.70;99.90
25923;DHT22;13725;51.170;4.442;2022-11-30T15:02:00;10.60;99.90
25923;DHT22;13725;51.170;4.442;2022-11-30T15:04:28;10.50;99.90
25923;DHT22;13725;51.170;4.442;2022-11-30T15:06:55;10.50;99.90
25923;DHT22;13725;51.170;4.442;2022-11-30T15:09:27;10.50;99.90
25923;DHT22;13725;51.170;4.442;2022-11-30T15:11:55;10.40;99.90
25923;DHT22;13725;51.170;4.442;2022-11-30T15:14:21;10.40;99.90
25923;DHT22;13725;51.170;4.442;2022-11-30T15:16:50;10.40;99.90
25923;DHT22;13725;51.170;4.442;2022-11-30T15:19:31;10.30;99.90
25923;DHT22;13725;51.170;4.442;2022-11-30T15:21:58;10.30;99.90
25923;DHT22;13725;51.170;4.442;2022-11-30T15:24:25;10.30;99.90
25923;DHT22;13725;51.170;4.442;2022-11-30T15:26:58;10.20;99.90
25923;DHT22;13725;51.170;4.442;2022-11-30T15:31:58;10.20;99.90
25923;DHT22;13725;51.170;4.442;2022-11-30T15:34:37;10.20;99.90
25923;DHT22;13725;51.170;4.442;2022-11-30T15:37:04;10.20;99.90
25923;DHT22;13725;51.170;4.442;2022-11-30T15:39:30;10.20;99.90
25923;DHT22;13725;51.170;4.442;2022-11-30T15:42:02;10.20;99.90
25923;DHT22;13725;51.170;4.442;2022-11-30T15:44:44;10.10;99.90
25923;DHT22;13725;51.170;4.442;2022-11-30T15:47:24;10.00;99.90
25923;DHT22;13725;51.170;4.442;2022-11-30T15:49:52;10.00;99.90
25923;DHT22;13725;51.170;4.442;2022-11-30T15:52:19;10.00;99.90
25923;DHT22;13725;51.170;4.442;2022-11-30T15:54:51;9.90;99.90
25923;DHT22;13725;51.170;4.442;2022-11-30T15:57:18;10.00;99.90
25923;DHT22;13725;51.170;4.442;2022-11-30T16:00:03;9.90;99.90
25923;DHT22;13725;51.170;4.442;2022-11-30T16:02:33;9.90;99.90
25923;DHT22;13725;51.170;4.442;2022-11-30T16:10:32;9.90;99.90
25923;DHT22;13725;51.170;4.442;2022-11-30T16:12:59;9.80;99.90
25923;DHT22;13725;51.170;4.442;2022-11-30T16:15:30;9.80;99.90
25923;DHT22;13725;51.170;4.442;2022-11-30T16:20:34;9.70;99.90
25923;DHT22;13725;51.170;4.442;2022-11-30T16:22:59;9.70;99.90
25923;DHT22;13725;51.170;4.442;2022-11-30T16:25:25;9.70;99.90
25923;DHT22;13725;51.170;4.442;2022-11-30T16:27:51;9.60;99.90
25923;DHT22;13725;51.170;4.442;2022-11-30T16:30:20;9.80;99.90
25923;DHT22;13725;51.170;4.442;2022-11-30T16:32:47;9.70;99.90
25923;DHT22;13725;51.170;4.442;2022-11-30T16:35:33;9.60;99.90
25923;DHT22;13725;51.170;4.442;2022-11-30T16:37:59;9.60;99.90
25923;DHT22;13725;51.170;4.442;2022-11-30T16:40:25;9.60;99.90
25923;DHT22;13725;51.170;4.442;2022-11-30T16:42:51;9.60;99.90
25923;DHT22;13725;51.170;4.442;2022-11-30T16:45:20;9.60;99.90
25923;DHT22;13725;51.170;4.442;2022-11-30T16:47:46;9.60;99.90
25923;DHT22;13725;51.170;4.442;2022-11-30T16:50:13;9.60;99.90
25923;DHT22;13725;51.170;4.442;2022-11-30T16:52:41;9.60;99.90
25923;DHT22;13725;51.170;4.442;2022-11-30T16:55:15;9.60;99.90
25923;DHT22;13725;51.170;4.442;2022-11-30T16:57:41;9.60;99.90
25923;DHT22;13725;51.170;4.442;2022-11-30T17:00:08;9.50;99.90
25923;DHT22;13725;51.170;4.442;2022-11-30T17:02:38;9.40;99.90
25923;DHT22;13725;51.170;4.442;2022-11-30T17:05:06;9.40;99.90
25923;DHT22;13725;51.170;4.442;2022-11-30T17:07:33;9.40;99.90
25923;DHT22;13725;51.170;4.442;2022-11-30T17:10:01;9.40;99.90
25923;DHT22;13725;51.170;4.442;2022-11-30T17:12:27;9.40;99.90
25923;DHT22;13725;51.170;4.442;2022-11-30T17:14:53;9.40;99.90
25923;DHT22;13725;51.170;4.442;2022-11-30T17:17:18;9.40;99.90
25923;DHT22;13725;51.170;4.442;2022-11-30T17:19:44;9.40;99.90
25923;DHT22;13725;51.170;4.442;2022-11-30T17:22:10;9.30;99.90
25923;DHT22;13725;51.170;4.442;2022-11-30T17:24:35;9.20;99.90
25923;DHT22;13725;51.170;4.442;2022-11-30T17:27:01;9.30;99.90
25923;DHT22;13725;51.170;4.442;2022-11-30T17:29:27;9.10;99.90
25923;DHT22;13725;51.170;4.442;2022-11-30T17:31:53;9.10;99.90
25923;DHT22;13725;51.170;4.442;2022-11-30T17:34:19;8.90;99.90
25923;DHT22;13725;51.170;4.442;2022-11-30T17:36:45;8.80;99.90
25923;DHT22;13725;51.170;4.442;2022-11-30T17:39:10;8.70;99.90
25923;DHT22;13725;51.170;4.442;2022-11-30T17:41:36;8.60;99.90
25923;DHT22;13725;51.170;4.442;2022-11-30T17:44:02;8.60;99.90
25923;DHT22;13725;51.170;4.442;2022-11-30T17:46:28;8.50;99.90
25923;DHT22;13725;51.170;4.442;2022-11-30T17:48:54;8.50;99.90